TimeEST,TemperatureF,Dew PointF,Humidity,Sea Level PressureIn,VisibilityMPH,Wind Direction,Wind SpeedMPH,Gust SpeedMPH,PrecipitationIn,Events,Conditions,WindDirDegrees,DateUTC
12:53 AM,30.9,27.0,85,30.41,10.0,Calm,Calm,-,N/A,,Clear,0,2012-12-31 05:53:00
1:53 AM,32.0,27.0,82,30.39,10.0,Calm,Calm,-,N/A,,Clear,0,2012-12-31 06:53:00
2:53 AM,30.9,27.0,85,30.39,10.0,Calm,Calm,-,N/A,,Clear,0,2012-12-31 07:53:00
3:53 AM,30.9,26.1,82,30.38,10.0,Calm,Calm,-,N/A,,Clear,0,2012-12-31 08:53:00
4:53 AM,30.9,27.0,85,30.36,10.0,Calm,Calm,-,N/A,,Clear,0,2012-12-31 09:53:00
5:53 AM,30.0,27.0,88,30.35,10.0,Calm,Calm,-,N/A,,Clear,0,2012-12-31 10:53:00
6:53 AM,30.9,27.0,85,30.36,10.0,Calm,Calm,-,N/A,,Clear,0,2012-12-31 11:53:00
7:53 AM,34.0,30.0,85,30.40,10.0,Calm,Calm,-,N/A,,Clear,0,2012-12-31 12:53:00
8:53 AM,39.9,32.0,73,30.36,10.0,Calm,Calm,-,0.01,,Clear,0,2012-12-31 13:53:00
9:53 AM,50.0,35.1,57,30.38,10.0,ESE,6.9,-,N/A,,Clear,110,2012-12-31 14:53:00
10:53 AM,54.0,37.9,55,30.37,10.0,SE,5.8,-,N/A,,Clear,130,2012-12-31 15:53:00
11:53 AM,59.0,41.0,51,30.34,10.0,East,3.5,-,N/A,,Clear,90,2012-12-31 16:53:00
12:53 PM,63.0,44.1,50,30.30,10.0,SW,6.9,-,N/A,,Clear,220,2012-12-31 17:53:00
1:53 PM,64.9,46.9,52,30.27,10.0,SSW,10.4,-,N/A,,Overcast,200,2012-12-31 18:53:00
2:53 PM,64.0,46.9,54,30.26,10.0,Variable,6.9,-,N/A,,Overcast,0,2012-12-31 19:53:00
3:53 PM,63.0,48.0,58,30.25,10.0,South,6.9,-,N/A,,Overcast,190,2012-12-31 20:53:00
4:53 PM,63.0,48.0,58,30.24,10.0,South,3.5,-,N/A,,Overcast,180,2012-12-31 21:53:00
5:53 PM,61.0,48.9,64,30.24,10.0,Calm,Calm,-,N/A,,Overcast,0,2012-12-31 22:53:00
6:53 PM,57.9,48.9,72,30.25,10.0,Calm,Calm,-,N/A,,Mostly Cloudy,0,2012-12-31 23:53:00
7:53 PM,53.1,46.9,80,30.24,10.0,Calm,Calm,-,N/A,,Scattered Clouds,0,2013-01-01 00:53:00
8:53 PM,48.0,44.1,86,30.25,10.0,Calm,Calm,-,N/A,,Clear,0,2013-01-01 01:53:00
9:53 PM,46.9,44.1,90,30.25,10.0,Calm,Calm,-,N/A,,Clear,0,2013-01-01 02:53:00
10:53 PM,46.9,43.0,86,30.24,10.0,Calm,Calm,-,N/A,,Clear,0,2013-01-01 03:53:00
11:53 PM,44.1,41.0,89,30.22,9.0,Calm,Calm,-,N/A,,Clear,0,2013-01-01 04:53:00